createdAt,value
2022-10-04T00:00:02.964Z,985.69
2022-10-04T00:01:02.886Z,985.72
2022-10-04T00:02:03.126Z,985.72
2022-10-04T00:03:03.232Z,985.86
2022-10-04T00:04:03.252Z,985.69
2022-10-04T00:05:03.410Z,985.78
2022-10-04T00:06:03.258Z,985.69
2022-10-04T00:07:03.367Z,985.69
2022-10-04T00:08:03.520Z,985.64
2022-10-04T00:09:03.663Z,985.69
2022-10-04T00:10:03.858Z,985.67
2022-10-04T00:11:03.058Z,985.78
2022-10-04T00:12:03.065Z,985.67
2022-10-04T00:13:03.004Z,985.58
2022-10-04T00:14:02.959Z,985.58
2022-10-04T00:15:02.980Z,985.64
2022-10-04T00:16:03.132Z,985.58
2022-10-04T00:17:03.124Z,985.64
2022-10-04T00:18:03.197Z,985.64
2022-10-04T00:19:03.545Z,985.69
2022-10-04T00:20:03.312Z,985.58
2022-10-04T00:21:03.444Z,985.61
2022-10-04T00:22:03.519Z,985.78
2022-10-04T00:23:03.600Z,985.78
2022-10-04T00:24:03.703Z,985.61
2022-10-04T00:25:03.674Z,985.67
2022-10-04T00:26:03.745Z,985.61
2022-10-04T00:27:03.817Z,985.67
2022-10-04T00:28:03.904Z,985.52
2022-10-04T00:29:02.931Z,985.58
2022-10-04T00:30:02.967Z,985.67
2022-10-04T00:31:02.994Z,985.70
2022-10-04T00:32:03.075Z,985.81
2022-10-04T00:33:02.984Z,985.58
2022-10-04T00:34:03.191Z,985.64
2022-10-04T00:35:03.193Z,985.76
2022-10-04T00:36:03.389Z,985.61
2022-10-04T00:37:03.523Z,985.67
2022-10-04T00:38:03.572Z,985.78
2022-10-04T00:39:03.514Z,985.61
2022-10-04T00:40:03.670Z,985.56
2022-10-04T00:41:02.966Z,985.67
2022-10-04T00:42:02.960Z,985.67
2022-10-04T00:43:03.069Z,985.61
2022-10-04T00:44:03.238Z,985.67
2022-10-04T00:45:03.195Z,985.50
2022-10-04T00:46:03.334Z,985.64
2022-10-04T00:47:03.085Z,985.59
2022-10-04T00:48:03.082Z,985.50
2022-10-04T00:49:03.044Z,985.53
2022-10-04T00:50:03.075Z,985.44
2022-10-04T00:51:03.190Z,985.50
2022-10-04T00:52:03.196Z,985.50
2022-10-04T00:53:03.126Z,985.56
2022-10-04T00:54:03.206Z,985.56
2022-10-04T00:55:03.290Z,985.56
2022-10-04T00:56:03.419Z,985.62
2022-10-04T00:57:03.611Z,985.50
2022-10-04T00:58:03.674Z,985.44
2022-10-04T00:59:03.680Z,985.56
2022-10-04T01:00:03.812Z,985.56
2022-10-04T01:01:04.048Z,985.73
2022-10-04T01:02:03.925Z,985.62
2022-10-04T01:03:03.850Z,985.62
2022-10-04T01:04:02.970Z,985.62
2022-10-04T01:05:03.113Z,985.53
2022-10-04T01:06:03.078Z,985.59
2022-10-04T01:07:03.183Z,985.45
2022-10-04T01:08:03.205Z,985.51
2022-10-04T01:09:03.203Z,985.62
2022-10-04T01:10:03.289Z,985.59
2022-10-04T01:11:03.347Z,985.56
2022-10-04T01:12:03.274Z,985.56
2022-10-04T01:13:03.400Z,985.59
2022-10-04T01:14:03.467Z,985.45
2022-10-04T01:15:03.529Z,985.45
2022-10-04T01:16:03.425Z,985.39
2022-10-04T01:17:03.366Z,985.45
2022-10-04T01:18:09.386Z,985.59
2022-10-04T01:19:03.483Z,985.57
2022-10-04T01:20:03.516Z,985.51
2022-10-04T01:21:03.565Z,985.54
2022-10-04T01:22:03.757Z,985.57
2022-10-04T01:23:03.654Z,985.42
2022-10-04T01:24:03.751Z,985.48
2022-10-04T01:25:03.772Z,985.57
2022-10-04T01:26:03.863Z,985.54
2022-10-04T01:27:02.947Z,985.43
2022-10-04T01:28:03.101Z,985.37
2022-10-04T01:29:02.976Z,985.54
2022-10-04T01:30:03.008Z,985.57
2022-10-04T01:31:03.299Z,985.49
2022-10-04T01:32:03.129Z,985.46
2022-10-04T01:33:03.117Z,985.54
2022-10-04T01:34:03.254Z,985.35
2022-10-04T01:35:03.281Z,985.49
2022-10-04T01:36:03.276Z,985.43
2022-10-04T01:37:03.355Z,985.40
2022-10-04T01:38:03.212Z,985.49
2022-10-04T01:39:03.377Z,985.38
2022-10-04T01:40:03.343Z,985.49
2022-10-04T01:41:03.266Z,985.55
2022-10-04T01:42:03.351Z,985.52
2022-10-04T01:43:03.274Z,985.41
2022-10-04T01:44:03.330Z,985.38
2022-10-04T01:45:03.375Z,985.44
2022-10-04T01:46:03.417Z,985.46
2022-10-04T01:47:03.426Z,985.46
2022-10-04T01:48:03.403Z,985.41
2022-10-04T01:49:03.800Z,985.38
2022-10-04T01:50:03.828Z,985.30
2022-10-04T01:51:03.720Z,985.25
2022-10-04T01:52:03.897Z,985.16
2022-10-04T01:53:03.828Z,985.11
2022-10-04T01:54:02.897Z,985.13
2022-10-04T01:55:02.938Z,985.13
2022-10-04T01:56:02.946Z,985.08
2022-10-04T01:57:02.909Z,985.19
2022-10-04T01:58:02.944Z,985.14
2022-10-04T01:59:02.965Z,985.17
2022-10-04T02:00:03.071Z,985.08
2022-10-04T02:01:03.246Z,985.08
2022-10-04T02:02:03.138Z,985.25
2022-10-04T02:03:03.194Z,985.28
2022-10-04T02:04:03.277Z,985.20
2022-10-04T02:05:03.364Z,985.14
2022-10-04T02:06:03.319Z,985.26
2022-10-04T02:07:03.273Z,985.29
2022-10-04T02:08:03.464Z,985.20
2022-10-04T02:09:03.391Z,985.12
2022-10-04T02:10:03.458Z,985.26
2022-10-04T02:11:03.184Z,985.26
2022-10-04T02:12:03.153Z,985.29
2022-10-04T02:13:03.530Z,985.26
2022-10-04T02:14:03.673Z,985.18
2022-10-04T02:15:03.728Z,985.34
2022-10-04T02:16:03.606Z,985.24
2022-10-04T02:17:03.438Z,985.09
2022-10-04T02:18:03.457Z,985.21
2022-10-04T02:19:03.482Z,985.04
2022-10-04T02:20:03.167Z,985.15
2022-10-04T02:21:03.312Z,985.18
2022-10-04T02:22:03.280Z,985.21
2022-10-04T02:23:03.336Z,985.18
2022-10-04T02:24:03.315Z,984.98
2022-10-04T02:25:03.335Z,985.15
2022-10-04T02:26:03.289Z,985.24
2022-10-04T02:27:03.379Z,985.21
2022-10-04T02:28:03.394Z,984.90
2022-10-04T02:29:03.452Z,985.13
2022-10-04T02:30:03.476Z,985.07
2022-10-04T02:31:03.664Z,985.02
2022-10-04T02:32:03.445Z,985.07
2022-10-04T02:33:03.471Z,985.05
2022-10-04T02:34:03.462Z,984.96
2022-10-04T02:35:03.467Z,985.05
2022-10-04T02:36:03.409Z,985.11
2022-10-04T02:37:03.531Z,985.25
2022-10-04T02:38:03.506Z,985.22
2022-10-04T02:39:03.513Z,985.08
2022-10-04T02:40:03.439Z,985.16
2022-10-04T02:41:03.434Z,985.19
2022-10-04T02:42:03.482Z,985.08
2022-10-04T02:43:03.489Z,985.11
2022-10-04T02:44:03.536Z,985.11
2022-10-04T02:45:03.738Z,985.17
2022-10-04T02:46:03.337Z,984.97
2022-10-04T02:47:03.117Z,984.91
2022-10-04T02:48:03.184Z,984.91
2022-10-04T02:49:03.116Z,984.97
2022-10-04T02:50:03.127Z,984.97
2022-10-04T02:51:03.139Z,984.94
2022-10-04T02:52:03.262Z,984.86
2022-10-04T02:53:03.251Z,984.97
2022-10-04T02:54:04.105Z,984.70
2022-10-04T02:55:03.449Z,984.73
2022-10-04T02:56:03.508Z,984.70
2022-10-04T02:57:04.607Z,984.83
2022-10-04T02:58:03.372Z,984.78
2022-10-04T02:59:03.368Z,984.65
2022-10-04T03:00:03.252Z,984.78
2022-10-04T03:01:03.418Z,984.89
2022-10-04T03:02:03.414Z,984.95
2022-10-04T03:03:03.271Z,984.86
2022-10-04T03:04:03.323Z,984.84
2022-10-04T03:05:03.336Z,984.98
2022-10-04T03:06:03.576Z,984.86
2022-10-04T03:07:03.557Z,984.95
2022-10-04T03:08:03.551Z,984.89
2022-10-04T03:09:03.727Z,984.89
2022-10-04T03:10:03.708Z,984.87
2022-10-04T03:11:03.859Z,984.98
2022-10-04T03:12:03.816Z,984.87
2022-10-04T03:13:03.794Z,984.87
2022-10-04T03:14:02.901Z,984.87
2022-10-04T03:15:02.992Z,984.78
2022-10-04T03:16:03.227Z,984.84
2022-10-04T03:17:03.188Z,984.87
2022-10-04T03:18:03.002Z,984.81
2022-10-04T03:19:03.038Z,984.84
2022-10-04T03:20:03.088Z,984.76
2022-10-04T03:21:03.197Z,984.68
2022-10-04T03:22:03.235Z,984.71
2022-10-04T03:23:03.685Z,984.74
2022-10-04T03:24:03.104Z,984.65
2022-10-04T03:25:03.285Z,984.81
2022-10-04T03:26:03.240Z,984.81
2022-10-04T03:27:03.351Z,984.87
2022-10-04T03:28:03.630Z,984.74
2022-10-04T03:29:03.407Z,984.65
2022-10-04T03:30:03.372Z,984.84
2022-10-04T03:31:03.670Z,984.87
2022-10-04T03:32:03.493Z,984.62
2022-10-04T03:33:03.458Z,984.77
2022-10-04T03:34:03.598Z,984.84
2022-10-04T03:35:03.471Z,984.62
2022-10-04T03:36:03.502Z,984.60
2022-10-04T03:37:03.583Z,984.68
2022-10-04T03:38:03.732Z,984.48
2022-10-04T03:39:03.673Z,984.65
2022-10-04T03:40:03.787Z,984.60
2022-10-04T03:41:03.852Z,984.71
2022-10-04T03:42:02.942Z,984.71
2022-10-04T03:43:02.906Z,984.60
2022-10-04T03:44:05.489Z,984.51
2022-10-04T03:45:03.167Z,984.54
2022-10-04T03:46:03.369Z,984.65
2022-10-04T03:47:03.242Z,984.51
2022-10-04T03:48:03.420Z,984.60
2022-10-04T03:49:03.363Z,984.51
2022-10-04T03:50:03.447Z,984.62
2022-10-04T03:51:03.515Z,984.48
2022-10-04T03:52:03.474Z,984.48
2022-10-04T03:53:03.497Z,984.62
2022-10-04T03:54:03.613Z,984.48
2022-10-04T03:55:03.723Z,984.37
2022-10-04T03:56:05.003Z,984.37
2022-10-04T03:57:03.693Z,984.48
2022-10-04T03:58:03.697Z,984.40
2022-10-04T03:59:03.808Z,984.59
2022-10-04T04:00:02.916Z,984.60
2022-10-04T04:01:03.304Z,984.60
2022-10-04T04:02:03.218Z,984.45
2022-10-04T04:03:03.165Z,984.71
2022-10-04T04:04:03.302Z,984.60
2022-10-04T04:05:03.342Z,984.68
2022-10-04T04:06:03.292Z,984.65
2022-10-04T04:07:03.434Z,984.68
2022-10-04T04:08:03.509Z,984.78
2022-10-04T04:09:03.603Z,984.74
2022-10-04T04:10:03.746Z,984.62
2022-10-04T04:11:03.715Z,984.54
2022-10-04T04:12:03.674Z,984.51
2022-10-04T04:13:03.732Z,984.62
2022-10-04T04:14:03.830Z,984.59
2022-10-04T04:15:03.762Z,984.48
2022-10-04T04:16:03.890Z,984.54
2022-10-04T04:17:03.899Z,984.51
2022-10-04T04:18:02.903Z,984.40
2022-10-04T04:19:02.909Z,984.42
2022-10-04T04:20:07.844Z,984.31
2022-10-04T04:21:02.990Z,984.37
2022-10-04T04:22:03.100Z,984.34
2022-10-04T04:23:03.402Z,984.40
2022-10-04T04:24:03.392Z,984.17
2022-10-04T04:25:03.872Z,984.28
2022-10-04T04:26:04.406Z,984.25
2022-10-04T04:27:03.390Z,984.34
2022-10-04T04:28:03.562Z,984.42
2022-10-04T04:29:03.415Z,984.45
2022-10-04T04:30:03.513Z,984.57
2022-10-04T04:31:03.632Z,984.62
2022-10-04T04:32:03.801Z,984.71
2022-10-04T04:33:03.742Z,984.78
2022-10-04T04:34:03.784Z,984.74
2022-10-04T04:35:03.878Z,984.62
2022-10-04T04:36:03.819Z,984.59
2022-10-04T04:37:03.950Z,984.59
2022-10-04T04:38:02.939Z,984.65
2022-10-04T04:39:03.018Z,984.78
2022-10-04T04:40:03.104Z,984.71
2022-10-04T04:41:03.071Z,984.56
2022-10-04T04:42:03.129Z,984.34
2022-10-04T04:43:03.093Z,984.45
2022-10-04T04:44:03.105Z,984.45
2022-10-04T04:45:03.144Z,984.45
2022-10-04T04:46:27.819Z,984.53
2022-10-04T04:47:03.204Z,984.39
2022-10-04T04:48:03.201Z,984.62
2022-10-04T04:49:03.235Z,984.59
2022-10-04T04:50:03.196Z,984.59
2022-10-04T04:51:03.203Z,984.67
2022-10-04T04:52:03.307Z,984.59
2022-10-04T04:53:03.266Z,984.62
2022-10-04T04:54:03.192Z,984.50
2022-10-04T04:55:03.312Z,984.53
2022-10-04T04:56:05.412Z,984.50
2022-10-04T04:57:03.375Z,984.50
2022-10-04T04:58:03.470Z,984.45
2022-10-04T04:59:03.532Z,984.56
2022-10-04T05:00:03.549Z,984.56
2022-10-04T05:01:03.644Z,984.47
2022-10-04T05:02:03.609Z,984.50
2022-10-04T05:03:03.577Z,984.47
2022-10-04T05:04:03.545Z,984.42
2022-10-04T05:05:03.409Z,984.33
2022-10-04T05:06:03.551Z,984.39
2022-10-04T05:07:03.616Z,984.50
2022-10-04T05:08:03.535Z,984.42
2022-10-04T05:09:03.550Z,984.42
2022-10-04T05:10:03.709Z,984.33
2022-10-04T05:11:03.749Z,984.45
2022-10-04T05:12:03.679Z,984.33
2022-10-04T05:13:03.809Z,984.30
2022-10-04T05:14:03.827Z,984.33
2022-10-04T05:15:03.736Z,984.36
2022-10-04T05:16:03.984Z,984.33
2022-10-04T05:17:02.994Z,984.36
2022-10-04T05:18:02.950Z,984.47
2022-10-04T05:19:03.898Z,984.47
2022-10-04T05:20:03.836Z,984.39
2022-10-04T05:21:02.971Z,984.42
2022-10-04T05:22:02.961Z,984.36
2022-10-04T05:23:03.000Z,984.36
2022-10-04T05:24:02.964Z,984.47
2022-10-04T05:25:02.968Z,984.45
2022-10-04T05:26:02.996Z,984.45
2022-10-04T05:27:03.057Z,984.62
2022-10-04T05:28:03.125Z,984.45
2022-10-04T05:29:03.010Z,984.33
2022-10-04T05:30:03.121Z,984.33
2022-10-04T05:31:03.083Z,984.36
2022-10-04T05:32:03.172Z,984.22
2022-10-04T05:33:03.026Z,984.30
2022-10-04T05:34:03.168Z,984.42
2022-10-04T05:35:03.180Z,984.36
2022-10-04T05:36:03.120Z,984.42
2022-10-04T05:37:03.111Z,984.19
2022-10-04T05:38:03.120Z,984.28
2022-10-04T05:39:03.243Z,984.27
2022-10-04T05:40:03.269Z,984.27
2022-10-04T05:41:03.145Z,984.39
2022-10-04T05:42:03.177Z,984.22
2022-10-04T05:43:03.337Z,984.30
2022-10-04T05:44:03.267Z,984.22
2022-10-04T05:45:03.371Z,984.36
2022-10-04T05:46:03.532Z,984.50
2022-10-04T05:47:03.446Z,984.30
2022-10-04T05:48:03.487Z,984.36
2022-10-04T05:49:03.605Z,984.36
2022-10-04T05:50:03.625Z,984.45
2022-10-04T05:51:03.607Z,984.47
2022-10-04T05:52:03.780Z,984.47
2022-10-04T05:53:03.763Z,984.39
2022-10-04T05:54:03.659Z,984.53
2022-10-04T05:55:03.788Z,984.47
2022-10-04T05:56:03.785Z,984.45
2022-10-04T05:57:03.128Z,984.50
2022-10-04T05:58:03.837Z,984.42
2022-10-04T05:59:03.863Z,984.53
2022-10-04T06:00:05.148Z,984.64
2022-10-04T06:01:04.005Z,984.50
2022-10-04T06:02:03.965Z,984.42
2022-10-04T06:03:03.921Z,984.50
2022-10-04T06:04:03.033Z,984.56
2022-10-04T06:05:03.133Z,984.50
2022-10-04T06:06:03.168Z,984.59
2022-10-04T06:07:03.283Z,984.59
2022-10-04T06:08:03.690Z,984.47
2022-10-04T06:09:03.868Z,984.56
2022-10-04T06:10:03.798Z,984.41
2022-10-04T06:11:02.982Z,984.56
2022-10-04T06:12:03.132Z,984.47
2022-10-04T06:13:03.807Z,984.56
2022-10-04T06:14:03.796Z,984.39
2022-10-04T06:15:03.119Z,984.53
2022-10-04T06:16:03.012Z,984.58
2022-10-04T06:17:03.335Z,984.64
2022-10-04T06:18:03.307Z,984.58
2022-10-04T06:19:03.423Z,984.61
2022-10-04T06:20:03.546Z,984.61
2022-10-04T06:21:03.717Z,984.64
2022-10-04T06:22:03.748Z,984.61
2022-10-04T06:23:03.703Z,984.61
2022-10-04T06:24:03.869Z,984.64
2022-10-04T06:25:03.875Z,984.64
2022-10-04T06:26:03.889Z,984.55
2022-10-04T06:27:02.959Z,984.52
2022-10-04T06:28:04.000Z,984.61
2022-10-04T06:29:03.957Z,984.47
2022-10-04T06:30:02.977Z,984.52
2022-10-04T06:31:03.086Z,984.58
2022-10-04T06:32:03.007Z,984.49
2022-10-04T06:33:03.060Z,984.64
2022-10-04T06:34:03.237Z,984.49
2022-10-04T06:35:03.297Z,984.52
2022-10-04T06:36:03.417Z,984.49
2022-10-04T06:37:03.353Z,984.61
2022-10-04T06:38:03.323Z,984.58
2022-10-04T06:39:04.843Z,984.58
2022-10-04T06:40:03.356Z,984.60
2022-10-04T06:41:03.490Z,984.55
2022-10-04T06:42:03.603Z,984.69
2022-10-04T06:43:03.007Z,984.60
2022-10-04T06:44:02.956Z,984.69
2022-10-04T06:45:02.991Z,984.60
2022-10-04T06:46:03.148Z,984.60
2022-10-04T06:47:03.047Z,984.52
2022-10-04T06:48:03.053Z,984.57
2022-10-04T06:49:03.109Z,984.66
2022-10-04T06:50:03.760Z,984.57
2022-10-04T06:51:03.821Z,984.71
2022-10-04T06:52:03.839Z,984.69
2022-10-04T06:53:03.786Z,984.68
2022-10-04T06:54:03.854Z,984.71
2022-10-04T06:55:03.832Z,984.71
2022-10-04T06:56:02.986Z,984.68
2022-10-04T06:57:03.058Z,984.68
2022-10-04T06:58:03.033Z,984.71
2022-10-04T06:59:03.050Z,984.78
2022-10-04T07:00:02.925Z,984.71
2022-10-04T07:01:03.092Z,984.62
2022-10-04T07:02:03.129Z,984.77
2022-10-04T07:03:03.048Z,984.68
2022-10-04T07:04:03.152Z,984.74
2022-10-04T07:05:09.692Z,984.62
2022-10-04T07:06:03.222Z,984.76
2022-10-04T07:07:03.316Z,984.71
2022-10-04T07:08:03.420Z,984.76
2022-10-04T07:09:03.511Z,984.76
2022-10-04T07:10:03.625Z,984.73
2022-10-04T07:11:03.632Z,984.68
2022-10-04T07:12:03.642Z,984.73
2022-10-04T07:13:03.551Z,984.76
2022-10-04T07:14:03.775Z,984.78
2022-10-04T07:15:03.747Z,984.84
2022-10-04T07:16:04.002Z,984.73
2022-10-04T07:17:03.862Z,984.84
2022-10-04T07:18:03.855Z,984.73
2022-10-04T07:19:03.835Z,984.73
2022-10-04T07:20:03.976Z,984.81
2022-10-04T07:21:03.983Z,984.80
2022-10-04T07:22:02.985Z,984.80
2022-10-04T07:23:03.036Z,984.78
2022-10-04T07:24:02.984Z,984.86
2022-10-04T07:25:02.986Z,984.80
2022-10-04T07:26:03.033Z,984.89
2022-10-04T07:27:03.140Z,984.83
2022-10-04T07:28:03.315Z,984.89
2022-10-04T07:29:03.236Z,984.78
2022-10-04T07:30:03.276Z,984.89
2022-10-04T07:31:03.515Z,984.89
2022-10-04T07:32:03.390Z,984.86
2022-10-04T07:33:03.489Z,985.00
2022-10-04T07:34:03.572Z,985.03
2022-10-04T07:35:03.685Z,984.94
2022-10-04T07:36:03.802Z,984.91
2022-10-04T07:37:03.858Z,985.14
2022-10-04T07:38:03.870Z,985.03
2022-10-04T07:39:03.927Z,984.97
2022-10-04T07:40:02.955Z,985.03
2022-10-04T07:41:02.997Z,985.08
2022-10-04T07:42:03.089Z,985.05
2022-10-04T07:43:03.073Z,984.91
2022-10-04T07:44:03.142Z,984.91
2022-10-04T07:45:03.263Z,984.91
2022-10-04T07:46:03.468Z,984.88
2022-10-04T07:47:03.446Z,984.94
2022-10-04T07:48:03.478Z,984.82
2022-10-04T07:49:03.500Z,984.88
2022-10-04T07:50:03.581Z,984.79
2022-10-04T07:51:03.569Z,984.85
2022-10-04T07:52:03.590Z,984.85
2022-10-04T07:53:09.732Z,984.74
2022-10-04T07:54:03.052Z,984.99
2022-10-04T07:55:03.074Z,984.93
2022-10-04T07:56:03.077Z,984.82
2022-10-04T07:57:03.200Z,984.93
2022-10-04T07:58:03.182Z,984.93
2022-10-04T07:59:03.328Z,984.93
2022-10-04T08:00:03.267Z,984.84
2022-10-04T08:01:03.328Z,984.93
2022-10-04T08:02:03.592Z,984.95
2022-10-04T08:03:03.664Z,984.93
2022-10-04T08:04:03.566Z,984.95
2022-10-04T08:05:03.704Z,984.95
2022-10-04T08:06:03.687Z,984.93
2022-10-04T08:07:03.832Z,984.92
2022-10-04T08:08:02.956Z,985.07
2022-10-04T08:09:03.014Z,984.92
2022-10-04T08:10:03.099Z,985.04
2022-10-04T08:11:03.034Z,985.01
2022-10-04T08:12:03.046Z,985.09
2022-10-04T08:13:03.191Z,985.21
2022-10-04T08:14:03.116Z,985.09
2022-10-04T08:15:03.281Z,985.15
2022-10-04T08:16:03.502Z,985.09
2022-10-04T08:17:03.387Z,985.15
2022-10-04T08:18:03.341Z,984.95
2022-10-04T08:19:03.360Z,985.06
2022-10-04T08:20:03.493Z,985.09
2022-10-04T08:21:03.437Z,985.09
2022-10-04T08:22:03.420Z,985.14
2022-10-04T08:23:03.665Z,985.23
2022-10-04T08:24:03.691Z,985.14
2022-10-04T08:25:03.766Z,985.11
2022-10-04T08:26:03.678Z,985.23
2022-10-04T08:27:03.724Z,985.23
2022-10-04T08:28:03.807Z,985.11
2022-10-04T08:29:03.762Z,985.17
2022-10-04T08:30:03.872Z,985.14
2022-10-04T08:31:03.205Z,985.14
2022-10-04T08:32:05.775Z,985.22
2022-10-04T08:33:02.988Z,985.22
2022-10-04T08:34:03.070Z,985.16
2022-10-04T08:35:03.021Z,985.08
2022-10-04T08:36:03.163Z,985.08
2022-10-04T08:37:03.083Z,985.19
2022-10-04T08:38:03.514Z,984.93
2022-10-04T08:39:03.599Z,985.05
2022-10-04T08:40:03.586Z,985.02
2022-10-04T08:41:03.595Z,985.24
2022-10-04T08:42:03.656Z,985.27
2022-10-04T08:43:03.667Z,985.07
2022-10-04T08:44:03.857Z,985.18
2022-10-04T08:45:03.809Z,985.18
2022-10-04T08:46:04.055Z,985.13
2022-10-04T08:47:03.840Z,985.07
2022-10-04T08:48:03.856Z,985.27
2022-10-04T08:49:02.977Z,985.18
2022-10-04T08:50:03.030Z,985.15
2022-10-04T08:51:02.978Z,985.12
2022-10-04T08:52:03.024Z,985.15
2022-10-04T08:53:10.132Z,985.26
2022-10-04T08:54:03.206Z,985.18
2022-10-04T08:55:03.387Z,985.09
2022-10-04T08:56:03.276Z,985.12
2022-10-04T08:57:03.357Z,985.26
2022-10-04T08:58:03.378Z,985.03
2022-10-04T08:59:03.394Z,985.11
2022-10-04T09:00:03.445Z,985.17
2022-10-04T09:01:03.561Z,985.03
2022-10-04T09:02:03.431Z,985.06
2022-10-04T09:03:03.562Z,985.06
2022-10-04T09:04:03.585Z,985.08
2022-10-04T09:05:03.613Z,985.08
2022-10-04T09:06:03.689Z,985.14
2022-10-04T09:07:03.704Z,985.08
2022-10-04T09:08:03.694Z,985.14
2022-10-04T09:09:03.738Z,985.19
2022-10-04T09:10:03.798Z,985.19
2022-10-04T09:11:03.893Z,985.25
2022-10-04T09:12:03.890Z,985.25
2022-10-04T09:13:03.960Z,985.22
2022-10-04T09:14:03.859Z,985.16
2022-10-04T09:15:02.900Z,985.16
2022-10-04T09:16:04.004Z,985.10
2022-10-04T09:17:06.328Z,985.24
2022-10-04T09:18:03.475Z,985.16
2022-10-04T09:19:03.344Z,985.07
2022-10-04T09:20:38.141Z,985.10
2022-10-04T09:21:03.403Z,985.07
2022-10-04T09:22:03.317Z,985.04
2022-10-04T09:23:06.729Z,985.07
2022-10-04T09:24:03.396Z,985.04
2022-10-04T09:25:03.859Z,984.98
2022-10-04T09:26:02.912Z,984.92
2022-10-04T09:27:03.137Z,984.89
2022-10-04T09:28:03.155Z,984.95
2022-10-04T09:29:05.531Z,984.89
2022-10-04T09:30:03.614Z,985.06
2022-10-04T09:31:03.920Z,984.89
2022-10-04T09:32:03.745Z,985.00
2022-10-04T09:33:03.923Z,984.97
2022-10-04T09:34:03.856Z,984.85
2022-10-04T09:35:02.973Z,984.96
2022-10-04T09:36:02.947Z,984.99
2022-10-04T09:37:02.902Z,984.90
2022-10-04T09:38:02.975Z,984.87
2022-10-04T09:39:30.651Z,984.84
2022-10-04T09:40:02.952Z,984.84
2022-10-04T09:41:03.033Z,984.93
2022-10-04T09:42:02.975Z,984.92
2022-10-04T09:43:03.034Z,984.84
2022-10-04T09:44:03.130Z,984.95
2022-10-04T09:45:03.194Z,985.00
2022-10-04T09:46:03.188Z,984.92
2022-10-04T09:47:03.228Z,985.03
2022-10-04T09:48:03.327Z,984.91
2022-10-04T09:49:03.318Z,984.91
2022-10-04T09:50:03.381Z,984.94
2022-10-04T09:51:03.512Z,984.82
2022-10-04T09:52:03.607Z,984.91
2022-10-04T09:53:03.654Z,984.88
2022-10-04T09:54:03.693Z,984.93
2022-10-04T09:55:03.310Z,984.96
2022-10-04T09:56:03.418Z,985.01
2022-10-04T09:57:03.490Z,984.93
2022-10-04T09:58:03.409Z,984.95
2022-10-04T09:59:03.556Z,984.98
2022-10-04T10:00:03.618Z,984.98
2022-10-04T10:01:03.650Z,984.98
2022-10-04T10:02:03.846Z,985.18
2022-10-04T10:03:04.068Z,984.98
2022-10-04T10:04:03.900Z,985.06
2022-10-04T10:05:02.911Z,985.12
2022-10-04T10:07:02.905Z,985.11
2022-10-04T10:08:02.943Z,985.03
2022-10-04T10:09:02.923Z,985.02
2022-10-04T10:10:02.984Z,985.02
2022-10-04T10:11:03.060Z,984.96
2022-10-04T10:12:03.004Z,985.05
2022-10-04T10:13:02.901Z,985.16
2022-10-04T10:14:02.966Z,985.02
2022-10-04T10:15:03.069Z,985.10
2022-10-04T10:16:03.110Z,985.07
2022-10-04T10:17:03.168Z,985.27
2022-10-04T10:18:03.190Z,985.09
2022-10-04T10:19:03.248Z,984.98
2022-10-04T10:20:03.268Z,985.24
2022-10-04T10:21:03.281Z,985.18
2022-10-04T10:22:03.360Z,985.20
2022-10-04T10:23:03.453Z,985.20
2022-10-04T10:24:03.597Z,985.20
2022-10-04T10:25:03.728Z,985.23
2022-10-04T10:26:03.659Z,985.26
2022-10-04T10:27:03.832Z,985.42
2022-10-04T10:28:04.002Z,985.42
2022-10-04T10:29:03.875Z,985.39
2022-10-04T10:30:03.856Z,985.53
2022-10-04T10:31:03.848Z,985.31
2022-10-04T10:32:03.852Z,985.36
2022-10-04T10:33:02.912Z,985.50
2022-10-04T10:34:03.018Z,985.53
2022-10-04T10:35:02.990Z,985.64
2022-10-04T10:36:03.023Z,985.47
2022-10-04T10:37:03.152Z,985.44
2022-10-04T10:38:05.204Z,985.64
2022-10-04T10:39:03.225Z,985.70
2022-10-04T10:40:03.313Z,985.61
2022-10-04T10:41:03.299Z,985.64
2022-10-04T10:42:03.313Z,985.67
2022-10-04T10:43:03.279Z,985.61
2022-10-04T10:44:03.449Z,985.67
2022-10-04T10:45:03.286Z,985.58
2022-10-04T10:46:03.545Z,985.67
2022-10-04T10:47:03.750Z,985.61
2022-10-04T10:48:03.637Z,985.58
2022-10-04T10:49:03.686Z,985.43
2022-10-04T10:50:03.823Z,985.60
2022-10-04T10:51:03.929Z,985.75
2022-10-04T10:52:03.783Z,985.72
2022-10-04T10:53:03.775Z,985.57
2022-10-04T10:54:03.778Z,985.75
2022-10-04T10:55:03.886Z,985.72
2022-10-04T10:56:03.917Z,985.63
2022-10-04T10:57:03.980Z,985.60
2022-10-04T10:58:02.942Z,985.54
2022-10-04T10:59:03.073Z,985.66
2022-10-04T11:00:02.993Z,985.74
2022-10-04T11:01:02.988Z,985.71
2022-10-04T11:02:03.312Z,985.60
2022-10-04T11:03:14.666Z,985.68
2022-10-04T11:04:03.164Z,985.68
2022-10-04T11:05:03.175Z,985.71
2022-10-04T11:06:03.335Z,985.65
2022-10-04T11:07:03.393Z,985.65
2022-10-04T11:08:03.506Z,985.54
2022-10-04T11:09:03.693Z,985.68
2022-10-04T11:10:03.710Z,985.51
2022-10-04T11:11:03.886Z,985.68
2022-10-04T11:12:03.853Z,985.71
2022-10-04T11:13:02.932Z,985.59
2022-10-04T11:14:03.070Z,985.62
2022-10-04T11:15:03.065Z,985.65
2022-10-04T11:16:03.227Z,985.67
2022-10-04T11:17:03.291Z,985.62
2022-10-04T11:18:03.293Z,985.59
2022-10-04T11:19:03.270Z,985.59
2022-10-04T11:20:03.322Z,985.56
2022-10-04T11:21:03.329Z,985.73
2022-10-04T11:22:03.399Z,985.50
2022-10-04T11:23:03.447Z,985.61
2022-10-04T11:24:03.408Z,985.64
2022-10-04T11:25:03.454Z,985.76
2022-10-04T11:26:03.422Z,985.52
2022-10-04T11:27:03.531Z,985.49
2022-10-04T11:28:03.780Z,985.61
2022-10-04T11:29:03.601Z,985.61
2022-10-04T11:30:03.731Z,985.75
2022-10-04T11:31:04.012Z,985.81
2022-10-04T11:32:03.083Z,985.78
2022-10-04T11:33:03.085Z,985.84
2022-10-04T11:34:03.104Z,985.84
2022-10-04T11:35:03.285Z,985.87
2022-10-04T11:36:03.286Z,985.84
2022-10-04T11:37:03.321Z,985.78
2022-10-04T11:38:03.335Z,985.78
2022-10-04T11:39:03.374Z,985.81
2022-10-04T11:40:03.381Z,985.83
2022-10-04T11:41:03.606Z,985.80
2022-10-04T11:42:03.656Z,985.81
2022-10-04T11:43:03.737Z,985.86
2022-10-04T11:44:03.897Z,985.83
2022-10-04T11:45:02.927Z,985.72
2022-10-04T11:46:10.625Z,985.92
2022-10-04T11:47:03.258Z,985.86
2022-10-04T11:48:03.069Z,985.86
2022-10-04T11:49:03.132Z,985.89
2022-10-04T11:50:03.111Z,985.86
2022-10-04T11:51:03.212Z,985.77
2022-10-04T11:52:03.247Z,985.92
2022-10-04T11:53:03.332Z,985.77
2022-10-04T11:54:03.294Z,985.80
2022-10-04T11:55:03.549Z,985.80
2022-10-04T11:56:03.500Z,985.86
2022-10-04T11:57:03.445Z,985.72
2022-10-04T11:58:03.530Z,985.69
2022-10-04T11:59:03.580Z,985.71
2022-10-04T12:00:03.685Z,985.71
2022-10-04T12:01:03.573Z,985.83
2022-10-04T12:02:03.711Z,985.77
2022-10-04T12:03:03.707Z,985.74
2022-10-04T12:04:03.945Z,985.83
2022-10-04T12:05:03.605Z,985.68
2022-10-04T12:06:03.723Z,985.82
2022-10-04T12:07:03.685Z,985.80
2022-10-04T12:08:03.742Z,985.82
2022-10-04T12:09:03.840Z,985.80
2022-10-04T12:10:03.754Z,985.71
2022-10-04T12:11:03.774Z,985.71
2022-10-04T12:12:03.861Z,985.79
2022-10-04T12:13:03.917Z,985.77
2022-10-04T12:14:03.794Z,985.68
2022-10-04T12:15:03.719Z,985.68
2022-10-04T12:16:03.951Z,985.65
2022-10-04T12:17:03.796Z,985.68
2022-10-04T12:18:03.739Z,985.65
2022-10-04T12:19:03.758Z,985.71
2022-10-04T12:20:03.742Z,985.77
2022-10-04T12:21:03.636Z,985.65
2022-10-04T12:22:03.782Z,985.65
2022-10-04T12:23:03.689Z,985.57
2022-10-04T12:24:03.813Z,985.71
2022-10-04T12:25:03.681Z,985.65
2022-10-04T12:26:03.704Z,985.65
2022-10-04T12:27:03.772Z,985.62
2022-10-04T12:28:03.914Z,985.59
2022-10-04T12:29:03.757Z,985.59